sensor_id;sensor_type;location;lat;lon;timestamp;P1;durP1;ratioP1;P2;durP2;ratioP2
64682;SDS011;51107;47.652;19.016;2024-02-14T00:01:04;5.10;;;2.70;;
64682;SDS011;51107;47.652;19.016;2024-02-14T00:03:36;3.78;;;1.77;;
64682;SDS011;51107;47.652;19.016;2024-02-14T00:06:06;2.35;;;1.45;;
64682;SDS011;51107;47.652;19.016;2024-02-14T00:08:34;2.15;;;1.48;;
64682;SDS011;51107;47.652;19.016;2024-02-14T00:11:02;2.50;;;1.40;;
64682;SDS011;51107;47.652;19.016;2024-02-14T00:13:30;1.85;;;1.10;;
64682;SDS011;51107;47.652;19.016;2024-02-14T00:16:01;4.03;;;1.50;;
64682;SDS011;51107;47.652;19.016;2024-02-14T00:18:30;4.72;;;1.30;;
64682;SDS011;51107;47.652;19.016;2024-02-14T00:20:58;2.08;;;1.45;;
64682;SDS011;51107;47.652;19.016;2024-02-14T00:23:26;2.33;;;1.30;;
64682;SDS011;51107;47.652;19.016;2024-02-14T00:25:55;1.80;;;1.05;;
64682;SDS011;51107;47.652;19.016;2024-02-14T00:28:23;1.55;;;1.17;;
64682;SDS011;51107;47.652;19.016;2024-02-14T00:30:54;4.60;;;1.70;;
64682;SDS011;51107;47.652;19.016;2024-02-14T00:33:22;1.85;;;1.17;;
64682;SDS011;51107;47.652;19.016;2024-02-14T00:35:51;4.78;;;1.52;;
64682;SDS011;51107;47.652;19.016;2024-02-14T00:38:19;3.22;;;1.12;;
64682;SDS011;51107;47.652;19.016;2024-02-14T00:40:47;3.45;;;1.40;;
64682;SDS011;51107;47.652;19.016;2024-02-14T00:43:15;3.20;;;1.35;;
64682;SDS011;51107;47.652;19.016;2024-02-14T00:45:44;3.30;;;1.45;;
64682;SDS011;51107;47.652;19.016;2024-02-14T00:48:11;2.28;;;1.42;;
64682;SDS011;51107;47.652;19.016;2024-02-14T00:50:40;2.95;;;1.67;;
64682;SDS011;51107;47.652;19.016;2024-02-14T00:53:08;6.70;;;1.50;;
64682;SDS011;51107;47.652;19.016;2024-02-14T00:55:36;6.15;;;2.03;;
64682;SDS011;51107;47.652;19.016;2024-02-14T00:58:04;3.42;;;1.83;;
64682;SDS011;51107;47.652;19.016;2024-02-14T01:00:32;2.90;;;1.48;;
64682;SDS011;51107;47.652;19.016;2024-02-14T01:03:03;4.85;;;1.30;;
64682;SDS011;51107;47.652;19.016;2024-02-14T01:05:31;3.25;;;1.48;;
64682;SDS011;51107;47.652;19.016;2024-02-14T01:07:59;2.83;;;1.58;;
64682;SDS011;51107;47.652;19.016;2024-02-14T01:10:28;5.10;;;2.10;;
64682;SDS011;51107;47.652;19.016;2024-02-14T01:12:56;5.47;;;2.12;;
64682;SDS011;51107;47.652;19.016;2024-02-14T01:15:24;2.50;;;1.80;;
64682;SDS011;51107;47.652;19.016;2024-02-14T01:17:52;4.43;;;2.28;;
64682;SDS011;51107;47.652;19.016;2024-02-14T01:20:20;5.50;;;2.00;;
64682;SDS011;51107;47.652;19.016;2024-02-14T01:22:48;2.60;;;1.65;;
64682;SDS011;51107;47.652;19.016;2024-02-14T01:25:16;2.45;;;1.50;;
64682;SDS011;51107;47.652;19.016;2024-02-14T01:27:45;2.15;;;1.27;;
64682;SDS011;51107;47.652;19.016;2024-02-14T01:30:13;3.80;;;1.85;;
64682;SDS011;51107;47.652;19.016;2024-02-14T01:32:42;3.25;;;1.48;;
64682;SDS011;51107;47.652;19.016;2024-02-14T01:35:10;3.35;;;1.08;;
64682;SDS011;51107;47.652;19.016;2024-02-14T01:37:38;5.87;;;2.08;;
64682;SDS011;51107;47.652;19.016;2024-02-14T01:40:06;5.28;;;2.25;;
64682;SDS011;51107;47.652;19.016;2024-02-14T01:42:35;4.32;;;2.20;;
64682;SDS011;51107;47.652;19.016;2024-02-14T01:45:03;3.40;;;1.67;;
64682;SDS011;51107;47.652;19.016;2024-02-14T01:47:32;6.57;;;2.15;;
64682;SDS011;51107;47.652;19.016;2024-02-14T01:50:00;3.37;;;1.65;;
64682;SDS011;51107;47.652;19.016;2024-02-14T01:52:29;3.22;;;1.25;;
64682;SDS011;51107;47.652;19.016;2024-02-14T01:54:57;1.65;;;1.12;;
64682;SDS011;51107;47.652;19.016;2024-02-14T01:57:26;2.45;;;1.23;;
64682;SDS011;51107;47.652;19.016;2024-02-14T01:59:55;1.05;;;0.93;;
64682;SDS011;51107;47.652;19.016;2024-02-14T02:02:26;1.73;;;0.77;;
64682;SDS011;51107;47.652;19.016;2024-02-14T02:04:54;4.68;;;1.23;;
64682;SDS011;51107;47.652;19.016;2024-02-14T02:07:23;5.30;;;2.58;;
64682;SDS011;51107;47.652;19.016;2024-02-14T02:09:51;6.43;;;3.25;;
64682;SDS011;51107;47.652;19.016;2024-02-14T02:12:20;14.35;;;4.45;;
64682;SDS011;51107;47.652;19.016;2024-02-14T02:14:48;3.90;;;2.17;;
64682;SDS011;51107;47.652;19.016;2024-02-14T02:17:16;3.42;;;1.90;;
64682;SDS011;51107;47.652;19.016;2024-02-14T02:19:45;1.58;;;0.80;;
64682;SDS011;51107;47.652;19.016;2024-02-14T02:22:13;1.02;;;0.85;;
64682;SDS011;51107;47.652;19.016;2024-02-14T02:24:41;0.88;;;0.70;;
64682;SDS011;51107;47.652;19.016;2024-02-14T02:27:09;2.70;;;1.20;;
64682;SDS011;51107;47.652;19.016;2024-02-14T02:29:37;1.87;;;0.82;;
64682;SDS011;51107;47.652;19.016;2024-02-14T02:32:06;1.55;;;1.17;;
64682;SDS011;51107;47.652;19.016;2024-02-14T02:34:37;1.00;;;0.93;;
64682;SDS011;51107;47.652;19.016;2024-02-14T02:37:08;0.95;;;0.60;;
64682;SDS011;51107;47.652;19.016;2024-02-14T02:39:37;2.15;;;0.80;;
64682;SDS011;51107;47.652;19.016;2024-02-14T02:42:05;0.93;;;0.60;;
64682;SDS011;51107;47.652;19.016;2024-02-14T02:44:33;0.95;;;0.82;;
64682;SDS011;51107;47.652;19.016;2024-02-14T02:47:01;1.58;;;1.08;;
64682;SDS011;51107;47.652;19.016;2024-02-14T02:49:29;1.05;;;0.70;;
64682;SDS011;51107;47.652;19.016;2024-02-14T02:51:57;1.85;;;1.08;;
64682;SDS011;51107;47.652;19.016;2024-02-14T02:54:25;1.60;;;0.80;;
64682;SDS011;51107;47.652;19.016;2024-02-14T02:56:54;1.67;;;0.95;;
64682;SDS011;51107;47.652;19.016;2024-02-14T02:59:21;1.23;;;0.70;;
64682;SDS011;51107;47.652;19.016;2024-02-14T03:01:50;0.98;;;0.65;;
64682;SDS011;51107;47.652;19.016;2024-02-14T03:04:18;1.25;;;0.80;;
64682;SDS011;51107;47.652;19.016;2024-02-14T03:06:47;1.10;;;0.95;;
64682;SDS011;51107;47.652;19.016;2024-02-14T03:09:16;2.58;;;0.90;;
64682;SDS011;51107;47.652;19.016;2024-02-14T03:11:46;1.02;;;0.70;;
64682;SDS011;51107;47.652;19.016;2024-02-14T03:14:15;0.85;;;0.73;;
64682;SDS011;51107;47.652;19.016;2024-02-14T03:16:44;1.15;;;0.68;;
64682;SDS011;51107;47.652;19.016;2024-02-14T03:19:12;1.83;;;1.15;;
64682;SDS011;51107;47.652;19.016;2024-02-14T03:21:40;2.47;;;0.95;;
64682;SDS011;51107;47.652;19.016;2024-02-14T03:24:08;5.50;;;1.20;;
64682;SDS011;51107;47.652;19.016;2024-02-14T03:26:38;3.72;;;1.00;;
64682;SDS011;51107;47.652;19.016;2024-02-14T03:29:06;1.42;;;1.02;;
64682;SDS011;51107;47.652;19.016;2024-02-14T03:31:34;1.70;;;0.77;;
64682;SDS011;51107;47.652;19.016;2024-02-14T03:34:04;3.95;;;1.45;;
64682;SDS011;51107;47.652;19.016;2024-02-14T03:36:32;0.73;;;0.60;;
64682;SDS011;51107;47.652;19.016;2024-02-14T03:39:01;2.00;;;0.98;;
64682;SDS011;51107;47.652;19.016;2024-02-14T03:41:32;1.08;;;0.90;;
64682;SDS011;51107;47.652;19.016;2024-02-14T03:44:00;2.10;;;1.02;;
64682;SDS011;51107;47.652;19.016;2024-02-14T03:46:30;3.35;;;0.80;;
64682;SDS011;51107;47.652;19.016;2024-02-14T03:48:59;1.35;;;0.98;;
64682;SDS011;51107;47.652;19.016;2024-02-14T03:51:30;0.85;;;0.60;;
64682;SDS011;51107;47.652;19.016;2024-02-14T03:53:58;2.45;;;0.70;;
64682;SDS011;51107;47.652;19.016;2024-02-14T03:56:26;1.10;;;0.73;;
64682;SDS011;51107;47.652;19.016;2024-02-14T03:58:54;1.48;;;0.93;;
64682;SDS011;51107;47.652;19.016;2024-02-14T04:01:23;2.55;;;1.00;;
64682;SDS011;51107;47.652;19.016;2024-02-14T04:03:51;2.17;;;1.23;;
64682;SDS011;51107;47.652;19.016;2024-02-14T04:06:19;2.53;;;1.15;;
64682;SDS011;51107;47.652;19.016;2024-02-14T04:08:47;1.52;;;1.00;;
64682;SDS011;51107;47.652;19.016;2024-02-14T04:11:17;1.50;;;1.27;;
64682;SDS011;51107;47.652;19.016;2024-02-14T04:13:45;3.85;;;1.20;;
64682;SDS011;51107;47.652;19.016;2024-02-14T04:16:13;2.87;;;0.98;;
64682;SDS011;51107;47.652;19.016;2024-02-14T04:18:42;1.62;;;1.10;;
64682;SDS011;51107;47.652;19.016;2024-02-14T04:21:10;4.43;;;2.45;;
64682;SDS011;51107;47.652;19.016;2024-02-14T04:23:38;7.95;;;3.58;;
64682;SDS011;51107;47.652;19.016;2024-02-14T04:26:08;5.60;;;2.65;;
64682;SDS011;51107;47.652;19.016;2024-02-14T04:28:38;3.72;;;2.25;;
64682;SDS011;51107;47.652;19.016;2024-02-14T04:31:08;5.47;;;2.78;;
64682;SDS011;51107;47.652;19.016;2024-02-14T04:33:37;2.65;;;1.55;;
64682;SDS011;51107;47.652;19.016;2024-02-14T04:36:06;2.80;;;1.52;;
64682;SDS011;51107;47.652;19.016;2024-02-14T04:38:34;4.25;;;1.52;;
64682;SDS011;51107;47.652;19.016;2024-02-14T04:41:02;3.05;;;1.40;;
64682;SDS011;51107;47.652;19.016;2024-02-14T04:43:31;3.03;;;1.45;;
64682;SDS011;51107;47.652;19.016;2024-02-14T04:45:59;3.78;;;1.70;;
64682;SDS011;51107;47.652;19.016;2024-02-14T04:48:27;3.47;;;2.10;;
64682;SDS011;51107;47.652;19.016;2024-02-14T04:50:55;5.57;;;2.10;;
64682;SDS011;51107;47.652;19.016;2024-02-14T04:53:24;2.58;;;1.70;;
64682;SDS011;51107;47.652;19.016;2024-02-14T04:55:52;3.28;;;1.62;;
64682;SDS011;51107;47.652;19.016;2024-02-14T04:58:21;2.60;;;1.10;;
64682;SDS011;51107;47.652;19.016;2024-02-14T05:00:49;1.60;;;1.10;;
64682;SDS011;51107;47.652;19.016;2024-02-14T05:03:17;1.90;;;1.25;;
64682;SDS011;51107;47.652;19.016;2024-02-14T05:05:46;2.15;;;1.35;;
64682;SDS011;51107;47.652;19.016;2024-02-14T05:08:14;3.28;;;1.30;;
64682;SDS011;51107;47.652;19.016;2024-02-14T05:10:43;1.65;;;1.10;;
64682;SDS011;51107;47.652;19.016;2024-02-14T05:13:11;1.95;;;1.10;;
64682;SDS011;51107;47.652;19.016;2024-02-14T05:15:41;2.12;;;1.58;;
64682;SDS011;51107;47.652;19.016;2024-02-14T05:18:10;1.27;;;0.93;;
64682;SDS011;51107;47.652;19.016;2024-02-14T05:20:38;2.83;;;1.45;;
64682;SDS011;51107;47.652;19.016;2024-02-14T05:23:06;2.37;;;1.42;;
64682;SDS011;51107;47.652;19.016;2024-02-14T05:25:34;5.12;;;1.52;;
64682;SDS011;51107;47.652;19.016;2024-02-14T05:28:02;3.62;;;0.93;;
64682;SDS011;51107;47.652;19.016;2024-02-14T05:30:31;1.87;;;1.60;;
64682;SDS011;51107;47.652;19.016;2024-02-14T05:32:59;2.62;;;1.52;;
64682;SDS011;51107;47.652;19.016;2024-02-14T05:35:29;8.05;;;1.85;;
64682;SDS011;51107;47.652;19.016;2024-02-14T05:37:58;2.00;;;1.20;;
64682;SDS011;51107;47.652;19.016;2024-02-14T05:40:26;6.65;;;1.45;;
64682;SDS011;51107;47.652;19.016;2024-02-14T05:42:54;2.30;;;1.55;;
64682;SDS011;51107;47.652;19.016;2024-02-14T05:45:24;3.28;;;1.92;;
64682;SDS011;51107;47.652;19.016;2024-02-14T05:47:52;4.40;;;2.03;;
64682;SDS011;51107;47.652;19.016;2024-02-14T05:50:21;2.12;;;1.55;;
64682;SDS011;51107;47.652;19.016;2024-02-14T05:52:49;1.67;;;0.82;;
64682;SDS011;51107;47.652;19.016;2024-02-14T05:55:17;2.87;;;1.58;;
64682;SDS011;51107;47.652;19.016;2024-02-14T05:57:45;5.05;;;1.60;;
64682;SDS011;51107;47.652;19.016;2024-02-14T06:00:13;0.90;;;0.73;;
64682;SDS011;51107;47.652;19.016;2024-02-14T06:02:43;2.85;;;1.67;;
64682;SDS011;51107;47.652;19.016;2024-02-14T06:05:11;2.55;;;1.33;;
64682;SDS011;51107;47.652;19.016;2024-02-14T06:07:40;6.00;;;2.10;;
64682;SDS011;51107;47.652;19.016;2024-02-14T06:10:09;1.85;;;1.33;;
64682;SDS011;51107;47.652;19.016;2024-02-14T06:12:37;1.45;;;0.88;;
64682;SDS011;51107;47.652;19.016;2024-02-14T06:15:08;1.05;;;0.80;;
64682;SDS011;51107;47.652;19.016;2024-02-14T06:17:36;1.20;;;0.90;;
64682;SDS011;51107;47.652;19.016;2024-02-14T06:20:05;5.65;;;2.17;;
64682;SDS011;51107;47.652;19.016;2024-02-14T06:22:35;2.35;;;1.58;;
64682;SDS011;51107;47.652;19.016;2024-02-14T06:25:14;13.30;;;2.45;;
64682;SDS011;51107;47.652;19.016;2024-02-14T06:27:44;3.45;;;1.80;;
64682;SDS011;51107;47.652;19.016;2024-02-14T06:30:12;13.20;;;2.55;;
64682;SDS011;51107;47.652;19.016;2024-02-14T06:32:41;2.20;;;1.90;;
64682;SDS011;51107;47.652;19.016;2024-02-14T06:35:09;4.22;;;2.50;;
64682;SDS011;51107;47.652;19.016;2024-02-14T06:37:37;3.12;;;1.73;;
64682;SDS011;51107;47.652;19.016;2024-02-14T06:40:20;4.85;;;2.25;;
64682;SDS011;51107;47.652;19.016;2024-02-14T06:42:49;4.90;;;2.90;;
64682;SDS011;51107;47.652;19.016;2024-02-14T06:45:22;4.40;;;2.10;;
64682;SDS011;51107;47.652;19.016;2024-02-14T06:47:50;4.78;;;2.12;;
64682;SDS011;51107;47.652;19.016;2024-02-14T06:50:18;4.18;;;3.05;;
64682;SDS011;51107;47.652;19.016;2024-02-14T06:52:47;5.68;;;3.00;;
64682;SDS011;51107;47.652;19.016;2024-02-14T06:55:15;7.18;;;2.78;;
64682;SDS011;51107;47.652;19.016;2024-02-14T06:57:42;7.43;;;3.55;;
64682;SDS011;51107;47.652;19.016;2024-02-14T07:00:11;4.82;;;3.10;;
64682;SDS011;51107;47.652;19.016;2024-02-14T07:02:40;15.32;;;3.62;;
64682;SDS011;51107;47.652;19.016;2024-02-14T07:05:08;6.03;;;3.12;;
64682;SDS011;51107;47.652;19.016;2024-02-14T07:07:40;8.82;;;3.00;;
64682;SDS011;51107;47.652;19.016;2024-02-14T07:10:09;10.93;;;3.58;;
64682;SDS011;51107;47.652;19.016;2024-02-14T07:12:38;6.90;;;3.15;;
64682;SDS011;51107;47.652;19.016;2024-02-14T07:15:06;9.93;;;3.83;;
64682;SDS011;51107;47.652;19.016;2024-02-14T07:17:36;6.60;;;4.35;;
64682;SDS011;51107;47.652;19.016;2024-02-14T07:20:04;13.25;;;2.92;;
64682;SDS011;51107;47.652;19.016;2024-02-14T07:22:33;9.75;;;4.72;;
64682;SDS011;51107;47.652;19.016;2024-02-14T07:25:02;6.55;;;2.47;;
64682;SDS011;51107;47.652;19.016;2024-02-14T07:27:32;5.82;;;3.08;;
64682;SDS011;51107;47.652;19.016;2024-02-14T07:30:00;6.80;;;3.62;;
64682;SDS011;51107;47.652;19.016;2024-02-14T07:32:28;11.02;;;4.15;;
64682;SDS011;51107;47.652;19.016;2024-02-14T07:34:57;13.40;;;3.62;;
64682;SDS011;51107;47.652;19.016;2024-02-14T07:37:25;8.63;;;3.70;;
64682;SDS011;51107;47.652;19.016;2024-02-14T07:39:53;3.35;;;1.90;;
64682;SDS011;51107;47.652;19.016;2024-02-14T07:42:22;7.87;;;1.50;;
64682;SDS011;51107;47.652;19.016;2024-02-14T07:44:50;4.35;;;2.15;;
64682;SDS011;51107;47.652;19.016;2024-02-14T07:47:18;3.00;;;1.80;;
64682;SDS011;51107;47.652;19.016;2024-02-14T07:49:47;12.68;;;3.08;;
64682;SDS011;51107;47.652;19.016;2024-02-14T07:52:15;3.95;;;2.03;;
64682;SDS011;51107;47.652;19.016;2024-02-14T07:54:43;6.05;;;2.67;;
64682;SDS011;51107;47.652;19.016;2024-02-14T07:57:11;4.93;;;2.20;;
64682;SDS011;51107;47.652;19.016;2024-02-14T07:59:39;5.57;;;2.62;;
64682;SDS011;51107;47.652;19.016;2024-02-14T08:02:07;6.45;;;3.15;;
64682;SDS011;51107;47.652;19.016;2024-02-14T08:04:35;5.95;;;2.12;;
64682;SDS011;51107;47.652;19.016;2024-02-14T08:07:03;4.25;;;1.83;;
64682;SDS011;51107;47.652;19.016;2024-02-14T08:09:32;4.93;;;1.90;;
64682;SDS011;51107;47.652;19.016;2024-02-14T08:12:01;3.28;;;1.90;;
64682;SDS011;51107;47.652;19.016;2024-02-14T08:14:29;6.65;;;2.22;;
64682;SDS011;51107;47.652;19.016;2024-02-14T08:16:58;3.15;;;2.10;;
64682;SDS011;51107;47.652;19.016;2024-02-14T08:19:27;9.05;;;3.15;;
64682;SDS011;51107;47.652;19.016;2024-02-14T08:21:55;4.40;;;2.55;;
64682;SDS011;51107;47.652;19.016;2024-02-14T08:24:25;9.88;;;2.03;;
64682;SDS011;51107;47.652;19.016;2024-02-14T08:26:54;7.95;;;2.28;;
64682;SDS011;51107;47.652;19.016;2024-02-14T08:29:23;4.72;;;2.53;;
64682;SDS011;51107;47.652;19.016;2024-02-14T08:31:51;8.32;;;2.75;;
64682;SDS011;51107;47.652;19.016;2024-02-14T08:34:19;3.87;;;1.83;;
64682;SDS011;51107;47.652;19.016;2024-02-14T08:36:48;4.60;;;2.00;;
64682;SDS011;51107;47.652;19.016;2024-02-14T08:39:16;7.85;;;2.58;;
64682;SDS011;51107;47.652;19.016;2024-02-14T08:41:44;4.90;;;2.60;;
64682;SDS011;51107;47.652;19.016;2024-02-14T08:44:15;4.55;;;2.83;;
64682;SDS011;51107;47.652;19.016;2024-02-14T08:46:43;7.78;;;2.70;;
64682;SDS011;51107;47.652;19.016;2024-02-14T08:49:16;4.78;;;2.60;;
64682;SDS011;51107;47.652;19.016;2024-02-14T08:51:44;7.97;;;2.37;;
64682;SDS011;51107;47.652;19.016;2024-02-14T08:54:13;4.57;;;2.35;;
64682;SDS011;51107;47.652;19.016;2024-02-14T08:56:44;3.83;;;2.22;;
64682;SDS011;51107;47.652;19.016;2024-02-14T08:59:12;4.18;;;2.50;;
64682;SDS011;51107;47.652;19.016;2024-02-14T09:01:40;6.07;;;2.47;;
64682;SDS011;51107;47.652;19.016;2024-02-14T09:04:09;6.05;;;2.40;;
64682;SDS011;51107;47.652;19.016;2024-02-14T09:06:37;3.37;;;1.98;;
64682;SDS011;51107;47.652;19.016;2024-02-14T09:09:07;3.80;;;1.77;;
64682;SDS011;51107;47.652;19.016;2024-02-14T09:11:38;5.70;;;2.25;;
64682;SDS011;51107;47.652;19.016;2024-02-14T09:14:08;3.55;;;2.20;;
64682;SDS011;51107;47.652;19.016;2024-02-14T09:16:38;5.43;;;2.90;;
64682;SDS011;51107;47.652;19.016;2024-02-14T09:19:06;3.55;;;2.25;;
64682;SDS011;51107;47.652;19.016;2024-02-14T09:21:35;4.62;;;2.70;;
64682;SDS011;51107;47.652;19.016;2024-02-14T09:24:04;6.85;;;2.75;;
64682;SDS011;51107;47.652;19.016;2024-02-14T09:26:32;4.60;;;2.30;;
64682;SDS011;51107;47.652;19.016;2024-02-14T09:29:01;5.55;;;2.33;;
64682;SDS011;51107;47.652;19.016;2024-02-14T09:31:29;4.72;;;2.17;;
64682;SDS011;51107;47.652;19.016;2024-02-14T09:33:57;3.15;;;1.83;;
64682;SDS011;51107;47.652;19.016;2024-02-14T09:36:26;3.17;;;1.90;;
64682;SDS011;51107;47.652;19.016;2024-02-14T09:38:54;4.57;;;2.22;;
64682;SDS011;51107;47.652;19.016;2024-02-14T09:41:30;4.60;;;2.00;;
64682;SDS011;51107;47.652;19.016;2024-02-14T09:44:04;2.83;;;1.52;;
64682;SDS011;51107;47.652;19.016;2024-02-14T09:46:34;3.62;;;1.80;;
64682;SDS011;51107;47.652;19.016;2024-02-14T09:49:04;4.32;;;2.10;;
64682;SDS011;51107;47.652;19.016;2024-02-14T09:51:34;3.75;;;1.83;;
64682;SDS011;51107;47.652;19.016;2024-02-14T09:54:03;3.95;;;1.73;;
64682;SDS011;51107;47.652;19.016;2024-02-14T09:56:32;3.45;;;1.95;;
64682;SDS011;51107;47.652;19.016;2024-02-14T09:59:00;5.68;;;1.90;;
64682;SDS011;51107;47.652;19.016;2024-02-14T10:01:30;5.62;;;1.90;;
64682;SDS011;51107;47.652;19.016;2024-02-14T10:03:59;3.42;;;2.03;;
64682;SDS011;51107;47.652;19.016;2024-02-14T10:06:27;5.12;;;2.00;;
64682;SDS011;51107;47.652;19.016;2024-02-14T10:08:55;3.12;;;1.67;;
64682;SDS011;51107;47.652;19.016;2024-02-14T10:11:31;2.17;;;1.10;;
64682;SDS011;51107;47.652;19.016;2024-02-14T10:14:00;2.30;;;1.05;;
64682;SDS011;51107;47.652;19.016;2024-02-14T10:16:32;1.42;;;1.00;;
64682;SDS011;51107;47.652;19.016;2024-02-14T10:19:01;2.40;;;0.98;;
64682;SDS011;51107;47.652;19.016;2024-02-14T10:21:31;3.97;;;1.73;;
64682;SDS011;51107;47.652;19.016;2024-02-14T10:24:01;1.98;;;1.40;;
64682;SDS011;51107;47.652;19.016;2024-02-14T10:26:29;3.00;;;1.52;;
64682;SDS011;51107;47.652;19.016;2024-02-14T10:28:59;2.87;;;1.62;;
64682;SDS011;51107;47.652;19.016;2024-02-14T10:31:27;3.08;;;1.30;;
64682;SDS011;51107;47.652;19.016;2024-02-14T10:33:55;3.72;;;1.10;;
64682;SDS011;51107;47.652;19.016;2024-02-14T10:36:26;1.52;;;0.90;;
64682;SDS011;51107;47.652;19.016;2024-02-14T10:38:55;2.05;;;1.00;;
64682;SDS011;51107;47.652;19.016;2024-02-14T10:41:26;3.10;;;1.17;;
64682;SDS011;51107;47.652;19.016;2024-02-14T10:43:54;2.72;;;1.33;;
64682;SDS011;51107;47.652;19.016;2024-02-14T10:46:23;2.67;;;0.90;;
64682;SDS011;51107;47.652;19.016;2024-02-14T10:48:55;3.78;;;0.95;;
64682;SDS011;51107;47.652;19.016;2024-02-14T10:51:32;3.08;;;1.33;;
64682;SDS011;51107;47.652;19.016;2024-02-14T10:54:03;1.62;;;1.08;;
64682;SDS011;51107;47.652;19.016;2024-02-14T10:56:34;2.03;;;1.37;;
64682;SDS011;51107;47.652;19.016;2024-02-14T10:59:05;1.40;;;1.10;;
64682;SDS011;51107;47.652;19.016;2024-02-14T11:01:38;3.83;;;1.23;;
64682;SDS011;51107;47.652;19.016;2024-02-14T11:04:06;5.57;;;1.00;;
64682;SDS011;51107;47.652;19.016;2024-02-14T11:06:48;3.45;;;1.10;;
64682;SDS011;51107;47.652;19.016;2024-02-14T11:09:17;3.95;;;1.12;;
64682;SDS011;51107;47.652;19.016;2024-02-14T11:11:45;2.22;;;1.08;;
64682;SDS011;51107;47.652;19.016;2024-02-14T11:14:20;2.08;;;0.88;;
64682;SDS011;51107;47.652;19.016;2024-02-14T11:16:51;1.67;;;1.05;;
64682;SDS011;51107;47.652;19.016;2024-02-14T11:19:29;3.17;;;1.20;;
64682;SDS011;51107;47.652;19.016;2024-02-14T11:22:10;3.08;;;0.98;;
64682;SDS011;51107;47.652;19.016;2024-02-14T11:24:40;2.65;;;1.17;;
64682;SDS011;51107;47.652;19.016;2024-02-14T11:27:09;1.62;;;0.90;;
64682;SDS011;51107;47.652;19.016;2024-02-14T11:29:59;1.27;;;0.73;;
64682;SDS011;51107;47.652;19.016;2024-02-14T11:32:28;1.55;;;0.98;;
64682;SDS011;51107;47.652;19.016;2024-02-14T11:34:57;1.90;;;1.05;;
64682;SDS011;51107;47.652;19.016;2024-02-14T11:37:29;1.30;;;0.90;;
64682;SDS011;51107;47.652;19.016;2024-02-14T11:39:59;1.30;;;0.80;;
64682;SDS011;51107;47.652;19.016;2024-02-14T11:42:28;2.92;;;1.10;;
64682;SDS011;51107;47.652;19.016;2024-02-14T11:44:58;1.40;;;1.05;;
64682;SDS011;51107;47.652;19.016;2024-02-14T11:47:26;5.45;;;1.15;;
64682;SDS011;51107;47.652;19.016;2024-02-14T11:49:55;1.80;;;1.05;;
64682;SDS011;51107;47.652;19.016;2024-02-14T11:52:26;1.37;;;0.80;;
64682;SDS011;51107;47.652;19.016;2024-02-14T11:54:55;2.15;;;1.20;;
64682;SDS011;51107;47.652;19.016;2024-02-14T11:57:25;3.50;;;1.00;;
64682;SDS011;51107;47.652;19.016;2024-02-14T11:59:55;0.98;;;0.82;;
64682;SDS011;51107;47.652;19.016;2024-02-14T12:02:25;2.97;;;1.10;;
64682;SDS011;51107;47.652;19.016;2024-02-14T12:04:54;1.27;;;0.90;;
64682;SDS011;51107;47.652;19.016;2024-02-14T12:07:23;1.50;;;1.08;;
64682;SDS011;51107;47.652;19.016;2024-02-14T12:09:54;1.90;;;1.25;;
64682;SDS011;51107;47.652;19.016;2024-02-14T12:12:23;1.05;;;0.80;;
64682;SDS011;51107;47.652;19.016;2024-02-14T12:14:52;1.70;;;0.98;;
64682;SDS011;51107;47.652;19.016;2024-02-14T12:17:22;2.45;;;1.02;;
64682;SDS011;51107;47.652;19.016;2024-02-14T12:19:51;2.35;;;0.95;;
64682;SDS011;51107;47.652;19.016;2024-02-14T12:22:20;1.30;;;0.82;;
64682;SDS011;51107;47.652;19.016;2024-02-14T12:24:49;1.85;;;1.25;;
64682;SDS011;51107;47.652;19.016;2024-02-14T12:27:18;2.05;;;1.20;;
64682;SDS011;51107;47.652;19.016;2024-02-14T12:29:46;1.80;;;0.77;;
64682;SDS011;51107;47.652;19.016;2024-02-14T12:32:16;2.15;;;1.20;;
64682;SDS011;51107;47.652;19.016;2024-02-14T12:34:45;2.25;;;1.02;;
64682;SDS011;51107;47.652;19.016;2024-02-14T12:37:13;2.08;;;1.20;;
64682;SDS011;51107;47.652;19.016;2024-02-14T12:39:42;1.67;;;1.25;;
64682;SDS011;51107;47.652;19.016;2024-02-14T12:42:11;1.08;;;0.82;;
64682;SDS011;51107;47.652;19.016;2024-02-14T12:44:39;2.55;;;1.58;;
64682;SDS011;51107;47.652;19.016;2024-02-14T12:47:07;2.10;;;1.00;;
64682;SDS011;51107;47.652;19.016;2024-02-14T12:49:36;2.33;;;1.33;;
64682;SDS011;51107;47.652;19.016;2024-02-14T12:52:04;2.55;;;1.25;;
64682;SDS011;51107;47.652;19.016;2024-02-14T12:54:32;2.97;;;1.30;;
64682;SDS011;51107;47.652;19.016;2024-02-14T12:57:01;1.60;;;1.40;;
64682;SDS011;51107;47.652;19.016;2024-02-14T12:59:30;1.30;;;0.90;;
64682;SDS011;51107;47.652;19.016;2024-02-14T13:01:58;2.03;;;1.15;;
64682;SDS011;51107;47.652;19.016;2024-02-14T13:04:26;1.87;;;0.90;;
64682;SDS011;51107;47.652;19.016;2024-02-14T13:06:56;1.92;;;1.10;;
64682;SDS011;51107;47.652;19.016;2024-02-14T13:09:24;2.55;;;1.12;;
64682;SDS011;51107;47.652;19.016;2024-02-14T13:11:52;1.08;;;0.93;;
64682;SDS011;51107;47.652;19.016;2024-02-14T13:14:20;1.75;;;1.02;;
64682;SDS011;51107;47.652;19.016;2024-02-14T13:16:48;3.85;;;1.35;;
64682;SDS011;51107;47.652;19.016;2024-02-14T13:19:17;3.12;;;1.12;;
64682;SDS011;51107;47.652;19.016;2024-02-14T13:21:46;1.62;;;1.05;;
64682;SDS011;51107;47.652;19.016;2024-02-14T13:24:16;5.15;;;1.58;;
64682;SDS011;51107;47.652;19.016;2024-02-14T13:26:45;2.03;;;1.48;;
64682;SDS011;51107;47.652;19.016;2024-02-14T13:29:13;4.15;;;1.77;;
64682;SDS011;51107;47.652;19.016;2024-02-14T13:31:41;4.00;;;1.98;;
64682;SDS011;51107;47.652;19.016;2024-02-14T13:34:10;6.00;;;2.15;;
64682;SDS011;51107;47.652;19.016;2024-02-14T13:36:40;5.87;;;1.87;;
64682;SDS011;51107;47.652;19.016;2024-02-14T13:39:07;3.12;;;1.98;;
64682;SDS011;51107;47.652;19.016;2024-02-14T13:41:36;3.20;;;1.70;;
64682;SDS011;51107;47.652;19.016;2024-02-14T13:44:08;6.07;;;2.20;;
64682;SDS011;51107;47.652;19.016;2024-02-14T13:46:38;4.12;;;2.22;;
64682;SDS011;51107;47.652;19.016;2024-02-14T13:49:06;6.90;;;2.33;;
64682;SDS011;51107;47.652;19.016;2024-02-14T13:51:34;3.42;;;1.87;;
64682;SDS011;51107;47.652;19.016;2024-02-14T13:54:04;8.98;;;1.87;;
64682;SDS011;51107;47.652;19.016;2024-02-14T13:56:34;2.62;;;1.48;;
64682;SDS011;51107;47.652;19.016;2024-02-14T13:59:02;4.75;;;1.92;;
64682;SDS011;51107;47.652;19.016;2024-02-14T14:01:30;3.45;;;2.00;;
64682;SDS011;51107;47.652;19.016;2024-02-14T14:03:59;4.07;;;2.10;;
64682;SDS011;51107;47.652;19.016;2024-02-14T14:06:27;5.18;;;2.37;;
64682;SDS011;51107;47.652;19.016;2024-02-14T14:08:55;3.90;;;2.22;;
64682;SDS011;51107;47.652;19.016;2024-02-14T14:11:24;3.90;;;1.77;;
64682;SDS011;51107;47.652;19.016;2024-02-14T14:13:52;4.30;;;2.70;;
64682;SDS011;51107;47.652;19.016;2024-02-14T14:16:20;3.45;;;1.80;;
64682;SDS011;51107;47.652;19.016;2024-02-14T14:18:49;11.27;;;2.30;;
64682;SDS011;51107;47.652;19.016;2024-02-14T14:21:21;2.30;;;1.50;;
64682;SDS011;51107;47.652;19.016;2024-02-14T14:23:50;4.40;;;2.12;;
64682;SDS011;51107;47.652;19.016;2024-02-14T14:26:18;6.78;;;1.92;;
64682;SDS011;51107;47.652;19.016;2024-02-14T14:28:47;4.20;;;2.17;;
64682;SDS011;51107;47.652;19.016;2024-02-14T14:31:16;5.32;;;2.15;;
64682;SDS011;51107;47.652;19.016;2024-02-14T14:33:45;4.78;;;2.10;;
64682;SDS011;51107;47.652;19.016;2024-02-14T14:36:13;5.65;;;3.00;;
64682;SDS011;51107;47.652;19.016;2024-02-14T14:38:42;6.57;;;3.58;;
64682;SDS011;51107;47.652;19.016;2024-02-14T14:41:10;5.18;;;2.28;;
64682;SDS011;51107;47.652;19.016;2024-02-14T14:43:38;3.20;;;1.70;;